createdAt,value
2022-10-07T00:03:55.967Z,102324.94
2022-10-07T00:08:57.639Z,102316.91
2022-10-07T00:14:00.287Z,102316.13
2022-10-07T00:19:03.271Z,102314.94
2022-10-07T00:24:05.451Z,102313.66
2022-10-07T00:29:07.206Z,102303.75
2022-10-07T00:34:10.886Z,102307.53
2022-10-07T00:39:14.433Z,102302.56
2022-10-07T00:44:31.048Z,102293.25
2022-10-07T00:49:37.240Z,102288.06
2022-10-07T00:54:39.126Z,102280.66
2022-10-07T00:59:41.518Z,102272.66
2022-10-07T01:04:43.199Z,102272.06
2022-10-07T01:09:46.420Z,102270.28
2022-10-07T01:14:59.803Z,102272.06
2022-10-07T01:20:07.316Z,102265.81
2022-10-07T01:25:17.864Z,102259.13
2022-10-07T01:30:19.490Z,102248.97
2022-10-07T01:35:24.762Z,102238.28
2022-10-07T01:40:28.134Z,102231.44
2022-10-07T01:45:30.372Z,102225.91
2022-10-07T01:50:32.243Z,102224.47
2022-10-07T01:55:33.814Z,102213.75
2022-10-07T02:00:38.417Z,102215.44
2022-10-07T02:05:39.722Z,102205.63
2022-10-07T02:10:46.765Z,102198.22
2022-10-07T02:15:51.279Z,102196.00
2022-10-07T02:20:54.722Z,102186.91
2022-10-07T02:25:56.231Z,102187.13
2022-10-07T02:31:00.255Z,102187.84
2022-10-07T02:36:04.711Z,102180.91
2022-10-07T02:41:06.224Z,102169.75
2022-10-07T02:46:10.836Z,102171.03
2022-10-07T02:51:21.109Z,102167.97
2022-10-07T02:56:24.096Z,102159.72
2022-10-07T03:01:29.226Z,102155.94
2022-10-07T03:06:30.605Z,102159.13
2022-10-07T03:11:31.980Z,102150.28
2022-10-07T03:16:33.544Z,102158.97
2022-10-07T03:21:34.884Z,102152.53
2022-10-07T03:26:36.284Z,102142.19
2022-10-07T03:31:37.631Z,102144.41
2022-10-07T03:36:39.342Z,102132.44
2022-10-07T03:41:42.114Z,102134.34
2022-10-07T03:46:43.429Z,102137.16
2022-10-07T03:51:44.990Z,102134.72
2022-10-07T03:56:46.287Z,102126.22
2022-10-07T04:01:47.761Z,102130.22
2022-10-07T04:06:49.117Z,102128.56
2022-10-07T04:11:50.410Z,102127.31
2022-10-07T04:16:51.729Z,102124.00
2022-10-07T04:21:53.031Z,102114.47
2022-10-07T04:26:54.366Z,102112.72
2022-10-07T04:31:58.143Z,102109.28
2022-10-07T04:37:01.296Z,102098.34
2022-10-07T04:42:02.743Z,102101.38
2022-10-07T04:47:05.430Z,102101.09
2022-10-07T04:52:06.812Z,102090.72
2022-10-07T04:57:10.023Z,102095.13
2022-10-07T05:02:11.387Z,102095.41
2022-10-07T05:07:12.758Z,102083.38
2022-10-07T05:12:14.501Z,102079.13
2022-10-07T05:17:16.666Z,102086.19
2022-10-07T05:22:17.996Z,102080.69
2022-10-07T05:27:19.323Z,102080.38
2022-10-07T05:32:21.235Z,102084.00
2022-10-07T05:37:22.582Z,102080.81
2022-10-07T05:42:23.899Z,102075.84
2022-10-07T05:47:26.989Z,102071.53
2022-10-07T05:52:28.382Z,102075.84
2022-10-07T05:57:29.918Z,102064.69
2022-10-07T06:02:31.387Z,102070.44
2022-10-07T06:07:32.740Z,102063.81
2022-10-07T06:12:52.902Z,102058.22
2022-10-07T06:17:54.221Z,102061.16
2022-10-07T06:22:57.113Z,102060.06
2022-10-07T06:27:58.774Z,102061.06
2022-10-07T06:33:00.443Z,102056.56
2022-10-07T06:38:01.754Z,102062.81
2022-10-07T06:43:03.116Z,102061.41
2022-10-07T06:48:04.425Z,102054.69
2022-10-07T06:53:05.727Z,102055.91
2022-10-07T06:58:11.462Z,102054.50
2022-10-07T07:03:13.779Z,102059.00
2022-10-07T07:08:17.260Z,102059.56
2022-10-07T07:13:18.638Z,102056.69
2022-10-07T07:18:19.935Z,102061.91
2022-10-07T07:23:21.235Z,102056.47
2022-10-07T07:28:22.676Z,102056.31
2022-10-07T07:33:24.034Z,102053.03
2022-10-07T07:38:25.650Z,102050.38
2022-10-07T07:43:27.005Z,102041.44
2022-10-07T07:48:28.365Z,102038.25
2022-10-07T07:53:30.101Z,102031.66
2022-10-07T07:58:31.474Z,102028.41
2022-10-07T08:03:33.319Z,102033.84
2022-10-07T08:08:34.712Z,102030.56
2022-10-07T08:13:36.531Z,102024.63
2022-10-07T08:18:39.030Z,102019.13
2022-10-07T08:23:41.037Z,102011.91
2022-10-07T08:28:42.685Z,102004.19
2022-10-07T08:33:45.186Z,102006.44
2022-10-07T08:38:49.164Z,101994.16
2022-10-07T08:43:51.300Z,101992.34
2022-10-07T08:49:09.293Z,101983.72
2022-10-07T08:54:13.835Z,101976.09
2022-10-07T08:59:15.126Z,101972.03
2022-10-07T09:04:35.628Z,101959.75
2022-10-07T09:09:37.162Z,101965.09
2022-10-07T09:14:39.714Z,101958.44
2022-10-07T09:19:48.690Z,101948.69
2022-10-07T09:24:55.545Z,101951.28
2022-10-07T09:29:57.939Z,101943.88
2022-10-07T09:35:03.189Z,101930.03
2022-10-07T09:40:22.133Z,101916.41
2022-10-07T09:45:28.074Z,101913.59
2022-10-07T09:50:31.542Z,101907.13
2022-10-07T09:55:43.205Z,101892.66
2022-10-07T10:00:45.995Z,101885.81
2022-10-07T10:05:50.318Z,101876.78
2022-10-07T10:10:56.123Z,101873.19
2022-10-07T10:15:58.522Z,101861.28
2022-10-07T10:21:29.880Z,101857.56
2022-10-07T10:26:46.455Z,101858.25
2022-10-07T10:31:59.747Z,101841.72
2022-10-07T10:37:14.431Z,101828.94
2022-10-07T10:42:21.467Z,101820.44
2022-10-07T10:47:41.694Z,101811.75
2022-10-07T10:53:01.478Z,101810.28
2022-10-07T10:58:18.216Z,101796.59
2022-10-07T11:03:35.226Z,101777.31
2022-10-07T11:08:38.596Z,101781.94
2022-10-07T11:13:40.866Z,101769.06
2022-10-07T11:18:47.520Z,101735.75
2022-10-07T11:23:54.915Z,101737.66
2022-10-07T11:28:58.203Z,101721.50
2022-10-07T11:34:23.088Z,101708.97
2022-10-07T11:39:24.544Z,101701.34
2022-10-07T11:44:31.371Z,101692.50
2022-10-07T11:49:39.612Z,101690.63
2022-10-07T11:54:52.648Z,101682.19
2022-10-07T11:59:58.598Z,101663.66
2022-10-07T12:05:00.632Z,101657.94
2022-10-07T12:10:01.929Z,101651.38
2022-10-07T12:15:03.514Z,101637.75
2022-10-07T12:20:23.418Z,101623.72
2022-10-07T12:25:31.970Z,101608.94
2022-10-07T12:30:37.768Z,101595.72
2022-10-07T12:35:43.227Z,101586.69
2022-10-07T12:40:47.765Z,101568.06
2022-10-07T12:45:49.778Z,101562.53
2022-10-07T12:50:53.438Z,101554.09
2022-10-07T12:55:56.229Z,101546.41
2022-10-07T13:01:16.235Z,101528.06
2022-10-07T13:06:17.628Z,101519.81
2022-10-07T13:11:33.999Z,101511.41
2022-10-07T13:16:38.464Z,101505.25
2022-10-07T13:21:45.562Z,101491.16
2022-10-07T13:26:46.949Z,101483.25
2022-10-07T13:32:12.765Z,101472.28
2022-10-07T13:37:26.306Z,101471.59
2022-10-07T13:42:28.606Z,101463.81
2022-10-07T13:47:33.849Z,101446.31
2022-10-07T13:52:41.118Z,101443.22
2022-10-07T13:57:44.302Z,101442.47
2022-10-07T14:02:46.482Z,101430.84
2022-10-07T14:07:53.581Z,101441.38
2022-10-07T14:12:56.836Z,101423.06
2022-10-07T14:18:04.177Z,101408.66
2022-10-07T14:23:07.311Z,101400.31
2022-10-07T14:28:14.711Z,101389.34
2022-10-07T14:33:36.620Z,101385.69
2022-10-07T14:38:38.118Z,101374.66
2022-10-07T14:43:40.590Z,101367.78
2022-10-07T14:48:42.187Z,101367.44
2022-10-07T14:53:44.775Z,101351.13
2022-10-07T14:58:46.147Z,101348.59
2022-10-07T15:03:48.656Z,101340.06
2022-10-07T15:08:50.281Z,101328.59
2022-10-07T15:13:51.654Z,101314.97
2022-10-07T15:18:53.426Z,101318.13
2022-10-07T15:23:55.170Z,101312.38
2022-10-07T15:28:57.486Z,101306.31
2022-10-07T15:33:58.934Z,101307.44
2022-10-07T15:39:02.077Z,101299.94
2022-10-07T15:44:05.399Z,101286.69
2022-10-07T15:49:07.486Z,101291.84
2022-10-07T15:54:09.807Z,101286.78
2022-10-07T15:59:11.120Z,101293.53
2022-10-07T16:04:13.101Z,101280.41
2022-10-07T16:09:14.762Z,101285.91
2022-10-07T16:14:16.133Z,101285.06
2022-10-07T16:19:17.452Z,101294.47
2022-10-07T16:24:20.172Z,101294.22
2022-10-07T16:29:41.383Z,101307.16
2022-10-07T16:34:44.378Z,101294.50
2022-10-07T16:39:45.727Z,101299.19
2022-10-07T16:44:50.596Z,101299.75
2022-10-07T16:49:52.291Z,101301.50
2022-10-07T16:54:53.656Z,101299.97
2022-10-07T16:59:55.856Z,101304.47
2022-10-07T17:04:57.196Z,101307.09
2022-10-07T17:09:58.489Z,101306.72
2022-10-07T17:15:00.163Z,101309.81
2022-10-07T17:20:01.463Z,101308.47
2022-10-07T17:25:03.884Z,101311.16
2022-10-07T17:30:05.526Z,101315.13
2022-10-07T17:35:08.388Z,101313.44
2022-10-07T17:40:10.107Z,101307.47
2022-10-07T17:45:12.225Z,101310.72
2022-10-07T17:50:15.036Z,101315.25
2022-10-07T17:55:16.340Z,101310.06
2022-10-07T18:00:17.671Z,101312.19
2022-10-07T18:05:19.692Z,101320.47
2022-10-07T18:10:21.000Z,101319.72
2022-10-07T18:15:23.202Z,101319.69
2022-10-07T18:20:28.399Z,101323.34
2022-10-07T18:25:29.800Z,101321.69
2022-10-07T18:30:31.088Z,101313.69
2022-10-07T18:35:32.368Z,101314.84
2022-10-07T18:40:33.660Z,101314.03
2022-10-07T18:45:35.069Z,101307.59
2022-10-07T18:50:36.432Z,101304.34
2022-10-07T18:55:38.955Z,101303.72
2022-10-07T19:00:43.764Z,101305.69
2022-10-07T19:05:45.165Z,101299.84
2022-10-07T19:10:46.844Z,101305.44
2022-10-07T19:15:48.243Z,101301.81
2022-10-07T19:20:58.912Z,101304.06
2022-10-07T19:26:01.695Z,101306.59
2022-10-07T19:31:12.168Z,101309.19
2022-10-07T19:36:14.532Z,101310.34
2022-10-07T19:41:16.325Z,101315.66
2022-10-07T19:46:19.260Z,101314.78
2022-10-07T19:51:21.077Z,101318.94
2022-10-07T19:56:26.641Z,101318.13
2022-10-07T20:01:30.989Z,101328.66
2022-10-07T20:06:33.058Z,101319.44
2022-10-07T20:11:34.638Z,101334.22
2022-10-07T20:16:37.297Z,101329.00
2022-10-07T20:21:39.264Z,101335.13
2022-10-07T20:26:42.228Z,101330.78
2022-10-07T20:31:44.197Z,101325.09
2022-10-07T20:36:46.128Z,101322.19
2022-10-07T20:42:06.437Z,101320.72
2022-10-07T20:47:08.922Z,101312.50
2022-10-07T20:52:12.424Z,101325.22
2022-10-07T20:57:15.854Z,101328.56
2022-10-07T21:02:18.208Z,101319.88
2022-10-07T21:07:20.020Z,101326.53
2022-10-07T21:12:21.363Z,101325.00
2022-10-07T21:17:24.897Z,101322.28
2022-10-07T21:22:27.234Z,101330.13
2022-10-07T21:27:30.184Z,101320.56
2022-10-07T21:32:31.503Z,101314.00
2022-10-07T21:37:32.812Z,101312.84
2022-10-07T21:42:34.115Z,101309.59
2022-10-07T21:47:35.488Z,101309.00
2022-10-07T21:52:36.794Z,101309.34
2022-10-07T21:57:38.122Z,101307.56
2022-10-07T22:02:39.496Z,101316.44
2022-10-07T22:07:59.754Z,101305.63
2022-10-07T22:13:01.064Z,101308.06
2022-10-07T22:18:04.214Z,101316.03
2022-10-07T22:23:05.839Z,101306.97
2022-10-07T22:28:07.219Z,101300.28
2022-10-07T22:33:11.188Z,101291.91
2022-10-07T22:38:16.036Z,101301.53
2022-10-07T22:43:17.581Z,101303.19
2022-10-07T22:48:18.879Z,101297.97
2022-10-07T22:53:20.618Z,101293.78
2022-10-07T22:58:21.931Z,101294.25
2022-10-07T23:03:23.832Z,101302.88
2022-10-07T23:08:25.419Z,101302.56
2022-10-07T23:13:26.874Z,101297.84
2022-10-07T23:18:28.949Z,101302.91
2022-10-07T23:23:30.761Z,101307.78
2022-10-07T23:28:33.933Z,101310.34
2022-10-07T23:33:35.754Z,101295.88
2022-10-07T23:38:38.950Z,101288.22
2022-10-07T23:43:40.490Z,101287.84
2022-10-07T23:48:42.211Z,101277.75
2022-10-07T23:53:43.570Z,101277.56
2022-10-07T23:58:44.893Z,101279.38
